sensor_id;sensor_type;location;lat;lon;timestamp;P1;durP1;ratioP1;P2;durP2;ratioP2
57233;SDS011;43090;52.604;13.318;2023-05-31T00:01:13;2.38;;;1.23;;
57233;SDS011;43090;52.604;13.318;2023-05-31T00:06:10;9.35;;;1.20;;
57233;SDS011;43090;52.604;13.318;2023-05-31T00:08:37;3.35;;;1.30;;
57233;SDS011;43090;52.604;13.318;2023-05-31T00:11:06;8.63;;;1.52;;
57233;SDS011;43090;52.604;13.318;2023-05-31T00:13:33;4.35;;;1.15;;
57233;SDS011;43090;52.604;13.318;2023-05-31T00:18:26;4.07;;;1.30;;
57233;SDS011;43090;52.604;13.318;2023-05-31T00:20:53;7.78;;;1.23;;
57233;SDS011;43090;52.604;13.318;2023-05-31T00:23:20;4.22;;;1.40;;
57233;SDS011;43090;52.604;13.318;2023-05-31T00:25:46;3.17;;;1.50;;
57233;SDS011;43090;52.604;13.318;2023-05-31T00:28:13;5.25;;;1.75;;
57233;SDS011;43090;52.604;13.318;2023-05-31T00:30:39;4.57;;;1.40;;
57233;SDS011;43090;52.604;13.318;2023-05-31T00:33:06;3.10;;;1.00;;
57233;SDS011;43090;52.604;13.318;2023-05-31T00:35:33;6.88;;;1.65;;
57233;SDS011;43090;52.604;13.318;2023-05-31T00:38:04;3.67;;;1.05;;
57233;SDS011;43090;52.604;13.318;2023-05-31T00:40:32;5.03;;;1.40;;
57233;SDS011;43090;52.604;13.318;2023-05-31T00:42:59;6.93;;;1.70;;
57233;SDS011;43090;52.604;13.318;2023-05-31T00:45:27;4.80;;;1.90;;
57233;SDS011;43090;52.604;13.318;2023-05-31T00:47:55;2.63;;;1.40;;
57233;SDS011;43090;52.604;13.318;2023-05-31T00:50:22;5.85;;;1.38;;
57233;SDS011;43090;52.604;13.318;2023-05-31T00:52:49;1.98;;;1.00;;
57233;SDS011;43090;52.604;13.318;2023-05-31T00:55:19;6.28;;;1.50;;
57233;SDS011;43090;52.604;13.318;2023-05-31T00:57:46;4.25;;;1.33;;
57233;SDS011;43090;52.604;13.318;2023-05-31T01:00:14;2.80;;;1.35;;
57233;SDS011;43090;52.604;13.318;2023-05-31T01:02:41;2.80;;;1.30;;
57233;SDS011;43090;52.604;13.318;2023-05-31T01:05:09;3.28;;;1.30;;
57233;SDS011;43090;52.604;13.318;2023-05-31T01:07:36;5.68;;;1.27;;
57233;SDS011;43090;52.604;13.318;2023-05-31T01:10:04;2.33;;;1.50;;
57233;SDS011;43090;52.604;13.318;2023-05-31T01:12:38;8.13;;;1.40;;
57233;SDS011;43090;52.604;13.318;2023-05-31T01:15:16;3.15;;;1.55;;
57233;SDS011;43090;52.604;13.318;2023-05-31T01:20:37;3.75;;;1.65;;
57233;SDS011;43090;52.604;13.318;2023-05-31T01:28:33;3.42;;;1.42;;
57233;SDS011;43090;52.604;13.318;2023-05-31T01:31:03;4.32;;;1.55;;
57233;SDS011;43090;52.604;13.318;2023-05-31T01:33:35;3.30;;;1.65;;
57233;SDS011;43090;52.604;13.318;2023-05-31T01:51:31;8.73;;;1.48;;
57233;SDS011;43090;52.604;13.318;2023-05-31T01:54:02;5.47;;;1.50;;
57233;SDS011;43090;52.604;13.318;2023-05-31T01:56:30;5.45;;;1.60;;
57233;SDS011;43090;52.604;13.318;2023-05-31T01:58:57;5.38;;;1.60;;
57233;SDS011;43090;52.604;13.318;2023-05-31T02:01:25;4.35;;;1.17;;
57233;SDS011;43090;52.604;13.318;2023-05-31T02:06:18;3.97;;;1.58;;
57233;SDS011;43090;52.604;13.318;2023-05-31T02:08:45;4.38;;;1.48;;
57233;SDS011;43090;52.604;13.318;2023-05-31T02:11:12;3.90;;;1.80;;
57233;SDS011;43090;52.604;13.318;2023-05-31T02:13:38;6.47;;;1.65;;
57233;SDS011;43090;52.604;13.318;2023-05-31T02:16:05;5.55;;;1.60;;
57233;SDS011;43090;52.604;13.318;2023-05-31T02:20:58;4.90;;;1.48;;
57233;SDS011;43090;52.604;13.318;2023-05-31T02:23:25;13.68;;;2.00;;
57233;SDS011;43090;52.604;13.318;2023-05-31T02:25:52;6.13;;;2.35;;
57233;SDS011;43090;52.604;13.318;2023-05-31T02:28:19;4.03;;;1.40;;
57233;SDS011;43090;52.604;13.318;2023-05-31T02:33:26;5.65;;;1.95;;
57233;SDS011;43090;52.604;13.318;2023-05-31T02:35:54;5.10;;;2.03;;
57233;SDS011;43090;52.604;13.318;2023-05-31T02:38:23;3.47;;;1.50;;
57233;SDS011;43090;52.604;13.318;2023-05-31T02:40:49;5.88;;;1.63;;
57233;SDS011;43090;52.604;13.318;2023-05-31T02:43:16;5.00;;;1.48;;
57233;SDS011;43090;52.604;13.318;2023-05-31T02:45:43;3.33;;;1.52;;
57233;SDS011;43090;52.604;13.318;2023-05-31T02:48:09;3.33;;;1.50;;
57233;SDS011;43090;52.604;13.318;2023-05-31T02:50:36;7.72;;;1.40;;
57233;SDS011;43090;52.604;13.318;2023-05-31T02:53:02;4.47;;;1.40;;
57233;SDS011;43090;52.604;13.318;2023-05-31T02:55:32;5.28;;;1.45;;
57233;SDS011;43090;52.604;13.318;2023-05-31T02:57:59;6.15;;;1.85;;
57233;SDS011;43090;52.604;13.318;2023-05-31T03:00:25;3.33;;;1.63;;
57233;SDS011;43090;52.604;13.318;2023-05-31T03:02:52;3.08;;;1.77;;
57233;SDS011;43090;52.604;13.318;2023-05-31T03:05:19;5.53;;;1.80;;
57233;SDS011;43090;52.604;13.318;2023-05-31T03:07:47;7.20;;;1.98;;
57233;SDS011;43090;52.604;13.318;2023-05-31T03:10:13;3.63;;;1.63;;
57233;SDS011;43090;52.604;13.318;2023-05-31T03:12:40;7.57;;;1.67;;
57233;SDS011;43090;52.604;13.318;2023-05-31T03:17:33;5.07;;;1.70;;
57233;SDS011;43090;52.604;13.318;2023-05-31T03:20:00;5.07;;;1.67;;
57233;SDS011;43090;52.604;13.318;2023-05-31T03:22:26;7.50;;;1.77;;
57233;SDS011;43090;52.604;13.318;2023-05-31T03:24:53;5.22;;;1.88;;
57233;SDS011;43090;52.604;13.318;2023-05-31T03:27:19;3.85;;;1.88;;
57233;SDS011;43090;52.604;13.318;2023-05-31T03:29:46;6.20;;;1.92;;
57233;SDS011;43090;52.604;13.318;2023-05-31T03:34:39;6.20;;;1.65;;
57233;SDS011;43090;52.604;13.318;2023-05-31T03:37:06;4.72;;;1.63;;
57233;SDS011;43090;52.604;13.318;2023-05-31T03:39:33;6.57;;;1.70;;
57233;SDS011;43090;52.604;13.318;2023-05-31T03:42:00;6.53;;;2.53;;
57233;SDS011;43090;52.604;13.318;2023-05-31T03:44:27;3.35;;;1.33;;
57233;SDS011;43090;52.604;13.318;2023-05-31T03:46:54;7.28;;;1.95;;
57233;SDS011;43090;52.604;13.318;2023-05-31T03:51:47;3.88;;;1.33;;
57233;SDS011;43090;52.604;13.318;2023-05-31T03:54:16;5.65;;;1.70;;
57233;SDS011;43090;52.604;13.318;2023-05-31T03:57:03;3.65;;;1.50;;
57233;SDS011;43090;52.604;13.318;2023-05-31T04:01:56;4.40;;;1.52;;
57233;SDS011;43090;52.604;13.318;2023-05-31T04:04:23;7.35;;;1.80;;
57233;SDS011;43090;52.604;13.318;2023-05-31T04:06:49;4.18;;;1.60;;
57233;SDS011;43090;52.604;13.318;2023-05-31T04:09:16;9.13;;;2.83;;
57233;SDS011;43090;52.604;13.318;2023-05-31T04:11:44;4.00;;;1.63;;
57233;SDS011;43090;52.604;13.318;2023-05-31T04:14:11;12.05;;;2.53;;
57233;SDS011;43090;52.604;13.318;2023-05-31T04:19:04;4.25;;;2.28;;
57233;SDS011;43090;52.604;13.318;2023-05-31T04:21:31;5.30;;;1.70;;
57233;SDS011;43090;52.604;13.318;2023-05-31T04:23:59;4.85;;;1.88;;
57233;SDS011;43090;52.604;13.318;2023-05-31T04:26:26;6.63;;;1.77;;
57233;SDS011;43090;52.604;13.318;2023-05-31T04:28:53;9.38;;;2.65;;
57233;SDS011;43090;52.604;13.318;2023-05-31T04:31:21;7.45;;;2.00;;
57233;SDS011;43090;52.604;13.318;2023-05-31T04:34:15;3.47;;;1.90;;
57233;SDS011;43090;52.604;13.318;2023-05-31T04:36:45;7.00;;;2.40;;
57233;SDS011;43090;52.604;13.318;2023-05-31T04:39:15;5.35;;;2.20;;
57233;SDS011;43090;52.604;13.318;2023-05-31T04:41:43;6.75;;;2.35;;
57233;SDS011;43090;52.604;13.318;2023-05-31T04:44:09;2.95;;;1.80;;
57233;SDS011;43090;52.604;13.318;2023-05-31T04:46:36;7.72;;;2.05;;
57233;SDS011;43090;52.604;13.318;2023-05-31T04:51:30;7.68;;;2.22;;
57233;SDS011;43090;52.604;13.318;2023-05-31T04:53:58;5.45;;;2.08;;
57233;SDS011;43090;52.604;13.318;2023-05-31T04:56:25;10.25;;;2.15;;
57233;SDS011;43090;52.604;13.318;2023-05-31T04:58:51;8.43;;;2.15;;
57233;SDS011;43090;52.604;13.318;2023-05-31T05:01:18;6.28;;;2.28;;
57233;SDS011;43090;52.604;13.318;2023-05-31T05:03:44;7.28;;;1.92;;
57233;SDS011;43090;52.604;13.318;2023-05-31T05:06:15;5.18;;;2.40;;
57233;SDS011;43090;52.604;13.318;2023-05-31T05:08:42;7.75;;;2.92;;
57233;SDS011;43090;52.604;13.318;2023-05-31T05:11:09;11.43;;;2.47;;
57233;SDS011;43090;52.604;13.318;2023-05-31T05:13:36;8.75;;;2.58;;
57233;SDS011;43090;52.604;13.318;2023-05-31T05:16:02;5.63;;;2.08;;
57233;SDS011;43090;52.604;13.318;2023-05-31T05:18:29;5.97;;;1.90;;
57233;SDS011;43090;52.604;13.318;2023-05-31T05:20:57;11.98;;;2.38;;
57233;SDS011;43090;52.604;13.318;2023-05-31T05:23:24;6.00;;;2.20;;
57233;SDS011;43090;52.604;13.318;2023-05-31T05:25:51;14.32;;;2.05;;
57233;SDS011;43090;52.604;13.318;2023-05-31T05:28:17;9.02;;;2.85;;
57233;SDS011;43090;52.604;13.318;2023-05-31T05:30:44;8.38;;;2.30;;
57233;SDS011;43090;52.604;13.318;2023-05-31T05:33:11;5.10;;;2.13;;
57233;SDS011;43090;52.604;13.318;2023-05-31T05:35:37;8.80;;;2.08;;
57233;SDS011;43090;52.604;13.318;2023-05-31T05:38:04;15.38;;;2.45;;
57233;SDS011;43090;52.604;13.318;2023-05-31T05:42:57;6.15;;;2.08;;
57233;SDS011;43090;52.604;13.318;2023-05-31T05:45:27;11.50;;;2.22;;
57233;SDS011;43090;52.604;13.318;2023-05-31T05:47:53;11.18;;;2.83;;
57233;SDS011;43090;52.604;13.318;2023-05-31T05:50:22;5.05;;;2.30;;
57233;SDS011;43090;52.604;13.318;2023-05-31T05:52:49;8.73;;;2.08;;
57233;SDS011;43090;52.604;13.318;2023-05-31T05:55:16;4.60;;;2.38;;
57233;SDS011;43090;52.604;13.318;2023-05-31T05:57:44;9.98;;;2.33;;
57233;SDS011;43090;52.604;13.318;2023-05-31T06:02:37;10.38;;;1.95;;
57233;SDS011;43090;52.604;13.318;2023-05-31T06:05:04;6.43;;;2.25;;
57233;SDS011;43090;52.604;13.318;2023-05-31T06:09:57;5.43;;;1.73;;
57233;SDS011;43090;52.604;13.318;2023-05-31T06:12:25;7.28;;;2.10;;
57233;SDS011;43090;52.604;13.318;2023-05-31T06:17:20;12.20;;;2.08;;
57233;SDS011;43090;52.604;13.318;2023-05-31T06:22:14;12.65;;;1.92;;
57233;SDS011;43090;52.604;13.318;2023-05-31T06:24:41;8.20;;;2.50;;
57233;SDS011;43090;52.604;13.318;2023-05-31T06:27:08;10.18;;;3.08;;
57233;SDS011;43090;52.604;13.318;2023-05-31T06:29:35;7.22;;;1.88;;
57233;SDS011;43090;52.604;13.318;2023-05-31T06:34:28;5.53;;;2.00;;
57233;SDS011;43090;52.604;13.318;2023-05-31T06:36:58;8.75;;;2.40;;
57233;SDS011;43090;52.604;13.318;2023-05-31T06:39:26;4.80;;;2.08;;
57233;SDS011;43090;52.604;13.318;2023-05-31T06:41:53;8.70;;;2.15;;
57233;SDS011;43090;52.604;13.318;2023-05-31T06:46:46;7.30;;;2.20;;
57233;SDS011;43090;52.604;13.318;2023-05-31T06:49:13;9.13;;;2.20;;
57233;SDS011;43090;52.604;13.318;2023-05-31T06:51:39;6.82;;;2.30;;
57233;SDS011;43090;52.604;13.318;2023-05-31T06:56:34;6.10;;;1.90;;
57233;SDS011;43090;52.604;13.318;2023-05-31T06:59:00;7.30;;;2.22;;
57233;SDS011;43090;52.604;13.318;2023-05-31T07:01:27;7.38;;;2.25;;
57233;SDS011;43090;52.604;13.318;2023-05-31T07:03:55;10.02;;;2.40;;
57233;SDS011;43090;52.604;13.318;2023-05-31T07:06:22;5.35;;;1.83;;
57233;SDS011;43090;52.604;13.318;2023-05-31T07:08:50;4.57;;;2.03;;
57233;SDS011;43090;52.604;13.318;2023-05-31T07:11:16;3.63;;;2.00;;
57233;SDS011;43090;52.604;13.318;2023-05-31T07:13:43;10.63;;;1.75;;
57233;SDS011;43090;52.604;13.318;2023-05-31T07:16:09;6.35;;;1.70;;
57233;SDS011;43090;52.604;13.318;2023-05-31T07:18:36;5.70;;;1.75;;
57233;SDS011;43090;52.604;13.318;2023-05-31T07:21:02;6.03;;;1.90;;
57233;SDS011;43090;52.604;13.318;2023-05-31T07:25:56;4.38;;;1.48;;
57233;SDS011;43090;52.604;13.318;2023-05-31T07:28:23;6.65;;;1.60;;
57233;SDS011;43090;52.604;13.318;2023-05-31T07:30:50;9.80;;;1.92;;
57233;SDS011;43090;52.604;13.318;2023-05-31T07:33:17;7.78;;;2.00;;
57233;SDS011;43090;52.604;13.318;2023-05-31T07:35:54;8.75;;;2.03;;
57233;SDS011;43090;52.604;13.318;2023-05-31T07:38:23;8.73;;;1.90;;
57233;SDS011;43090;52.604;13.318;2023-05-31T07:40:50;11.20;;;2.20;;
57233;SDS011;43090;52.604;13.318;2023-05-31T07:43:17;7.70;;;1.80;;
57233;SDS011;43090;52.604;13.318;2023-05-31T07:45:48;4.70;;;1.60;;
57233;SDS011;43090;52.604;13.318;2023-05-31T07:48:16;5.05;;;1.83;;
57233;SDS011;43090;52.604;13.318;2023-05-31T07:50:43;3.47;;;1.23;;
57233;SDS011;43090;52.604;13.318;2023-05-31T07:53:10;7.55;;;1.88;;
57233;SDS011;43090;52.604;13.318;2023-05-31T07:55:38;4.03;;;1.48;;
57233;SDS011;43090;52.604;13.318;2023-05-31T07:58:04;6.07;;;1.88;;
57233;SDS011;43090;52.604;13.318;2023-05-31T08:00:31;4.28;;;1.50;;
57233;SDS011;43090;52.604;13.318;2023-05-31T08:03:00;3.95;;;1.60;;
57233;SDS011;43090;52.604;13.318;2023-05-31T08:05:27;4.80;;;1.95;;
57233;SDS011;43090;52.604;13.318;2023-05-31T08:07:54;5.07;;;1.73;;
57233;SDS011;43090;52.604;13.318;2023-05-31T08:12:47;3.10;;;1.40;;
57233;SDS011;43090;52.604;13.318;2023-05-31T08:17:40;3.67;;;2.08;;
57233;SDS011;43090;52.604;13.318;2023-05-31T08:20:08;2.72;;;1.52;;
57233;SDS011;43090;52.604;13.318;2023-05-31T08:22:36;9.52;;;2.00;;
57233;SDS011;43090;52.604;13.318;2023-05-31T08:25:03;4.15;;;1.38;;
57233;SDS011;43090;52.604;13.318;2023-05-31T08:27:30;7.95;;;2.35;;
57233;SDS011;43090;52.604;13.318;2023-05-31T08:32:23;9.57;;;2.10;;
57233;SDS011;43090;52.604;13.318;2023-05-31T08:37:16;6.80;;;2.03;;
57233;SDS011;43090;52.604;13.318;2023-05-31T08:39:42;4.03;;;1.58;;
57233;SDS011;43090;52.604;13.318;2023-05-31T08:42:10;3.47;;;1.23;;
57233;SDS011;43090;52.604;13.318;2023-05-31T08:44:44;3.55;;;1.50;;
57233;SDS011;43090;52.604;13.318;2023-05-31T08:47:12;9.00;;;1.63;;
57233;SDS011;43090;52.604;13.318;2023-05-31T08:49:44;9.05;;;1.35;;
57233;SDS011;43090;52.604;13.318;2023-05-31T08:52:12;6.32;;;2.05;;
57233;SDS011;43090;52.604;13.318;2023-05-31T08:57:05;6.75;;;1.45;;
57233;SDS011;43090;52.604;13.318;2023-05-31T08:59:33;4.13;;;1.27;;
57233;SDS011;43090;52.604;13.318;2023-05-31T09:02:00;4.57;;;1.60;;
57233;SDS011;43090;52.604;13.318;2023-05-31T09:04:27;7.68;;;1.38;;
57233;SDS011;43090;52.604;13.318;2023-05-31T09:06:54;3.95;;;1.38;;
57233;SDS011;43090;52.604;13.318;2023-05-31T09:09:21;4.82;;;1.77;;
57233;SDS011;43090;52.604;13.318;2023-05-31T09:11:52;4.88;;;1.88;;
57233;SDS011;43090;52.604;13.318;2023-05-31T09:14:19;5.78;;;1.88;;
57233;SDS011;43090;52.604;13.318;2023-05-31T09:19:16;4.57;;;1.60;;
57233;SDS011;43090;52.604;13.318;2023-05-31T09:24:10;3.67;;;1.47;;
57233;SDS011;43090;52.604;13.318;2023-05-31T09:26:46;5.43;;;1.42;;
57233;SDS011;43090;52.604;13.318;2023-05-31T09:29:14;6.80;;;1.50;;
57233;SDS011;43090;52.604;13.318;2023-05-31T09:31:42;3.40;;;1.55;;
57233;SDS011;43090;52.604;13.318;2023-05-31T09:34:33;3.05;;;1.15;;
57233;SDS011;43090;52.604;13.318;2023-05-31T09:36:59;5.28;;;1.40;;
57233;SDS011;43090;52.604;13.318;2023-05-31T09:39:25;2.55;;;1.40;;
57233;SDS011;43090;52.604;13.318;2023-05-31T09:44:19;3.63;;;1.55;;
57233;SDS011;43090;52.604;13.318;2023-05-31T09:49:15;6.22;;;1.02;;
57233;SDS011;43090;52.604;13.318;2023-05-31T09:51:47;3.38;;;1.40;;
57233;SDS011;43090;52.604;13.318;2023-05-31T09:54:15;5.82;;;1.17;;
57233;SDS011;43090;52.604;13.318;2023-05-31T09:56:43;3.83;;;1.38;;
57233;SDS011;43090;52.604;13.318;2023-05-31T09:59:10;3.42;;;1.00;;
57233;SDS011;43090;52.604;13.318;2023-05-31T10:01:37;3.90;;;1.58;;
57233;SDS011;43090;52.604;13.318;2023-05-31T10:04:04;3.28;;;1.33;;
57233;SDS011;43090;52.604;13.318;2023-05-31T10:06:32;4.97;;;1.05;;
57233;SDS011;43090;52.604;13.318;2023-05-31T10:09:05;3.13;;;1.38;;
57233;SDS011;43090;52.604;13.318;2023-05-31T10:11:37;6.65;;;1.00;;
57233;SDS011;43090;52.604;13.318;2023-05-31T10:14:09;1.67;;;0.73;;
57233;SDS011;43090;52.604;13.318;2023-05-31T10:16:48;5.68;;;1.27;;
57233;SDS011;43090;52.604;13.318;2023-05-31T10:19:23;2.03;;;1.13;;
57233;SDS011;43090;52.604;13.318;2023-05-31T10:21:53;3.35;;;1.08;;
57233;SDS011;43090;52.604;13.318;2023-05-31T10:24:26;5.50;;;1.25;;
57233;SDS011;43090;52.604;13.318;2023-05-31T10:27:00;4.05;;;1.00;;
57233;SDS011;43090;52.604;13.318;2023-05-31T10:29:36;2.53;;;0.77;;
57233;SDS011;43090;52.604;13.318;2023-05-31T10:32:08;1.88;;;1.00;;
57233;SDS011;43090;52.604;13.318;2023-05-31T10:34:39;4.13;;;1.23;;
57233;SDS011;43090;52.604;13.318;2023-05-31T10:39:35;2.28;;;0.88;;
57233;SDS011;43090;52.604;13.318;2023-05-31T10:45:13;3.25;;;0.80;;
57233;SDS011;43090;52.604;13.318;2023-05-31T10:47:44;2.80;;;0.95;;
57233;SDS011;43090;52.604;13.318;2023-05-31T10:50:19;2.58;;;0.80;;
57233;SDS011;43090;52.604;13.318;2023-05-31T10:52:53;1.73;;;0.80;;
57233;SDS011;43090;52.604;13.318;2023-05-31T10:55:41;5.13;;;0.75;;
57233;SDS011;43090;52.604;13.318;2023-05-31T10:58:25;1.15;;;0.80;;
57233;SDS011;43090;52.604;13.318;2023-05-31T11:00:56;1.30;;;0.63;;
57233;SDS011;43090;52.604;13.318;2023-05-31T11:03:29;1.58;;;0.60;;
57233;SDS011;43090;52.604;13.318;2023-05-31T11:05:59;2.35;;;0.88;;
57233;SDS011;43090;52.604;13.318;2023-05-31T11:08:27;4.45;;;0.70;;
57233;SDS011;43090;52.604;13.318;2023-05-31T11:11:24;5.70;;;0.88;;
57233;SDS011;43090;52.604;13.318;2023-05-31T11:13:55;2.55;;;0.80;;
57233;SDS011;43090;52.604;13.318;2023-05-31T11:16:22;11.48;;;0.88;;
57233;SDS011;43090;52.604;13.318;2023-05-31T11:18:49;3.38;;;0.70;;
57233;SDS011;43090;52.604;13.318;2023-05-31T11:21:50;2.38;;;0.80;;
57233;SDS011;43090;52.604;13.318;2023-05-31T11:24:33;2.28;;;0.70;;
57233;SDS011;43090;52.604;13.318;2023-05-31T11:27:00;2.63;;;0.82;;
57233;SDS011;43090;52.604;13.318;2023-05-31T11:29:54;2.55;;;0.57;;
57233;SDS011;43090;52.604;13.318;2023-05-31T11:32:22;1.33;;;0.75;;
57233;SDS011;43090;52.604;13.318;2023-05-31T11:35:15;5.00;;;0.80;;
57233;SDS011;43090;52.604;13.318;2023-05-31T11:37:42;10.82;;;0.65;;
57233;SDS011;43090;52.604;13.318;2023-05-31T11:40:10;2.63;;;0.68;;
57233;SDS011;43090;52.604;13.318;2023-05-31T11:42:39;2.05;;;0.82;;
57233;SDS011;43090;52.604;13.318;2023-05-31T11:45:12;2.17;;;0.50;;
57233;SDS011;43090;52.604;13.318;2023-05-31T11:47:50;1.38;;;0.60;;
57233;SDS011;43090;52.604;13.318;2023-05-31T11:50:23;2.95;;;0.70;;
57233;SDS011;43090;52.604;13.318;2023-05-31T11:52:51;3.08;;;0.50;;
57233;SDS011;43090;52.604;13.318;2023-05-31T11:55:21;2.13;;;0.60;;
57233;SDS011;43090;52.604;13.318;2023-05-31T11:57:48;3.50;;;0.73;;
57233;SDS011;43090;52.604;13.318;2023-05-31T12:00:18;2.42;;;0.50;;
57233;SDS011;43090;52.604;13.318;2023-05-31T12:02:51;1.10;;;0.32;;
57233;SDS011;43090;52.604;13.318;2023-05-31T12:05:20;6.43;;;0.70;;
57233;SDS011;43090;52.604;13.318;2023-05-31T12:07:51;3.42;;;0.68;;
57233;SDS011;43090;52.604;13.318;2023-05-31T12:10:19;1.50;;;1.00;;
57233;SDS011;43090;52.604;13.318;2023-05-31T12:12:47;1.67;;;0.50;;
57233;SDS011;43090;52.604;13.318;2023-05-31T12:17:41;3.30;;;0.50;;
57233;SDS011;43090;52.604;13.318;2023-05-31T12:20:08;2.35;;;0.32;;
57233;SDS011;43090;52.604;13.318;2023-05-31T12:22:38;1.48;;;0.40;;
57233;SDS011;43090;52.604;13.318;2023-05-31T12:25:05;4.13;;;0.77;;
57233;SDS011;43090;52.604;13.318;2023-05-31T12:27:32;6.20;;;0.47;;
57233;SDS011;43090;52.604;13.318;2023-05-31T12:30:15;1.85;;;0.60;;
57233;SDS011;43090;52.604;13.318;2023-05-31T12:32:46;4.70;;;1.00;;
57233;SDS011;43090;52.604;13.318;2023-05-31T12:35:13;2.38;;;0.80;;
57233;SDS011;43090;52.604;13.318;2023-05-31T12:37:40;2.08;;;1.00;;
57233;SDS011;43090;52.604;13.318;2023-05-31T12:40:10;1.70;;;0.70;;
57233;SDS011;43090;52.604;13.318;2023-05-31T12:42:38;3.33;;;0.60;;
57233;SDS011;43090;52.604;13.318;2023-05-31T12:47:34;3.20;;;1.20;;
57233;SDS011;43090;52.604;13.318;2023-05-31T12:50:06;2.00;;;1.10;;
57233;SDS011;43090;52.604;13.318;2023-05-31T12:52:34;1.92;;;1.10;;
57233;SDS011;43090;52.604;13.318;2023-05-31T12:55:01;2.13;;;1.30;;
57233;SDS011;43090;52.604;13.318;2023-05-31T12:57:28;1.65;;;1.00;;
57233;SDS011;43090;52.604;13.318;2023-05-31T12:59:59;4.28;;;1.10;;
57233;SDS011;43090;52.604;13.318;2023-05-31T13:02:27;2.10;;;1.23;;
57233;SDS011;43090;52.604;13.318;2023-05-31T13:04:53;2.65;;;1.60;;
57233;SDS011;43090;52.604;13.318;2023-05-31T13:07:24;2.83;;;1.33;;
57233;SDS011;43090;52.604;13.318;2023-05-31T13:09:50;1.08;;;0.80;;
57233;SDS011;43090;52.604;13.318;2023-05-31T13:14:44;3.33;;;1.10;;
57233;SDS011;43090;52.604;13.318;2023-05-31T13:17:11;4.80;;;1.02;;
57233;SDS011;43090;52.604;13.318;2023-05-31T13:22:04;2.88;;;0.90;;
57233;SDS011;43090;52.604;13.318;2023-05-31T13:24:31;1.73;;;0.80;;
57233;SDS011;43090;52.604;13.318;2023-05-31T13:26:57;3.35;;;1.05;;
57233;SDS011;43090;52.604;13.318;2023-05-31T13:29:24;3.47;;;0.95;;
57233;SDS011;43090;52.604;13.318;2023-05-31T13:34:18;2.47;;;1.17;;
57233;SDS011;43090;52.604;13.318;2023-05-31T13:36:45;4.95;;;1.20;;
57233;SDS011;43090;52.604;13.318;2023-05-31T13:39:15;2.00;;;0.88;;
57233;SDS011;43090;52.604;13.318;2023-05-31T13:41:42;2.75;;;1.00;;
57233;SDS011;43090;52.604;13.318;2023-05-31T13:44:10;3.13;;;1.35;;
57233;SDS011;43090;52.604;13.318;2023-05-31T13:46:39;2.55;;;0.88;;
57233;SDS011;43090;52.604;13.318;2023-05-31T13:49:05;1.65;;;0.95;;
57233;SDS011;43090;52.604;13.318;2023-05-31T13:51:39;2.17;;;0.90;;
57233;SDS011;43090;52.604;13.318;2023-05-31T13:54:06;5.22;;;1.00;;
57233;SDS011;43090;52.604;13.318;2023-05-31T13:56:33;5.07;;;0.90;;
57233;SDS011;43090;52.604;13.318;2023-05-31T13:58:59;2.38;;;1.05;;
57233;SDS011;43090;52.604;13.318;2023-05-31T14:03:53;2.65;;;1.10;;
57233;SDS011;43090;52.604;13.318;2023-05-31T14:06:20;8.77;;;0.98;;
57233;SDS011;43090;52.604;13.318;2023-05-31T14:08:47;1.05;;;0.70;;
57233;SDS011;43090;52.604;13.318;2023-05-31T14:11:14;4.32;;;1.20;;
57233;SDS011;43090;52.604;13.318;2023-05-31T14:13:41;1.92;;;0.88;;
57233;SDS011;43090;52.604;13.318;2023-05-31T14:16:07;4.70;;;0.80;;
57233;SDS011;43090;52.604;13.318;2023-05-31T14:18:34;8.52;;;1.27;;
57233;SDS011;43090;52.604;13.318;2023-05-31T14:21:01;1.20;;;0.70;;
57233;SDS011;43090;52.604;13.318;2023-05-31T14:23:28;3.85;;;0.70;;
57233;SDS011;43090;52.604;13.318;2023-05-31T14:25:56;3.72;;;1.20;;
57233;SDS011;43090;52.604;13.318;2023-05-31T14:30:49;3.97;;;0.98;;
57233;SDS011;43090;52.604;13.318;2023-05-31T14:33:15;1.92;;;0.80;;
57233;SDS011;43090;52.604;13.318;2023-05-31T14:35:42;2.33;;;1.00;;
57233;SDS011;43090;52.604;13.318;2023-05-31T14:38:09;7.32;;;1.02;;
57233;SDS011;43090;52.604;13.318;2023-05-31T14:40:53;3.55;;;0.88;;
57233;SDS011;43090;52.604;13.318;2023-05-31T14:45:46;3.63;;;1.17;;
57233;SDS011;43090;52.604;13.318;2023-05-31T14:48:13;3.58;;;1.30;;
57233;SDS011;43090;52.604;13.318;2023-05-31T14:53:07;4.03;;;1.10;;
57233;SDS011;43090;52.604;13.318;2023-05-31T14:55:37;2.97;;;1.00;;
57233;SDS011;43090;52.604;13.318;2023-05-31T14:58:04;7.30;;;1.30;;
57233;SDS011;43090;52.604;13.318;2023-05-31T15:02:57;2.63;;;1.15;;
57233;SDS011;43090;52.604;13.318;2023-05-31T15:07:50;7.72;;;0.90;;
57233;SDS011;43090;52.604;13.318;2023-05-31T15:12:43;6.70;;;1.40;;
57233;SDS011;43090;52.604;13.318;2023-05-31T15:17:39;1.88;;;0.98;;
57233;SDS011;43090;52.604;13.318;2023-05-31T15:20:06;2.47;;;0.90;;
57233;SDS011;43090;52.604;13.318;2023-05-31T15:22:33;3.28;;;1.20;;
57233;SDS011;43090;52.604;13.318;2023-05-31T15:25:00;2.53;;;1.30;;
57233;SDS011;43090;52.604;13.318;2023-05-31T15:29:53;2.45;;;1.00;;
57233;SDS011;43090;52.604;13.318;2023-05-31T15:34:46;3.80;;;1.13;;
57233;SDS011;43090;52.604;13.318;2023-05-31T15:37:12;4.10;;;1.15;;
57233;SDS011;43090;52.604;13.318;2023-05-31T15:42:05;2.75;;;1.30;;
57233;SDS011;43090;52.604;13.318;2023-05-31T15:44:35;1.70;;;0.90;;
57233;SDS011;43090;52.604;13.318;2023-05-31T15:47:02;3.92;;;1.20;;
57233;SDS011;43090;52.604;13.318;2023-05-31T15:49:28;8.45;;;1.67;;
57233;SDS011;43090;52.604;13.318;2023-05-31T15:54:21;3.10;;;1.10;;
57233;SDS011;43090;52.604;13.318;2023-05-31T15:56:48;1.83;;;0.90;;
57233;SDS011;43090;52.604;13.318;2023-05-31T16:01:41;3.22;;;1.33;;
57233;SDS011;43090;52.604;13.318;2023-05-31T16:04:08;4.32;;;1.23;;
57233;SDS011;43090;52.604;13.318;2023-05-31T16:06:34;2.70;;;1.23;;
57233;SDS011;43090;52.604;13.318;2023-05-31T16:09:01;3.25;;;1.20;;
57233;SDS011;43090;52.604;13.318;2023-05-31T16:13:57;2.55;;;1.00;;
57233;SDS011;43090;52.604;13.318;2023-05-31T16:18:51;4.13;;;1.42;;
57233;SDS011;43090;52.604;13.318;2023-05-31T16:21:17;1.60;;;0.68;;
57233;SDS011;43090;52.604;13.318;2023-05-31T16:23:46;1.90;;;1.00;;
57233;SDS011;43090;52.604;13.318;2023-05-31T16:26:13;2.20;;;0.93;;
57233;SDS011;43090;52.604;13.318;2023-05-31T16:28:39;3.33;;;1.30;;
57233;SDS011;43090;52.604;13.318;2023-05-31T16:33:39;1.73;;;0.95;;
57233;SDS011;43090;52.604;13.318;2023-05-31T16:38:32;1.70;;;0.90;;
57233;SDS011;43090;52.604;13.318;2023-05-31T16:40:59;2.75;;;0.90;;
57233;SDS011;43090;52.604;13.318;2023-05-31T16:43:26;6.07;;;1.30;;
57233;SDS011;43090;52.604;13.318;2023-05-31T16:48:19;1.80;;;0.90;;
57233;SDS011;43090;52.604;13.318;2023-05-31T16:53:14;4.35;;;0.80;;
57233;SDS011;43090;52.604;13.318;2023-05-31T16:58:07;2.90;;;0.80;;
57233;SDS011;43090;52.604;13.318;2023-05-31T17:00:34;5.95;;;0.85;;
57233;SDS011;43090;52.604;13.318;2023-05-31T17:03:03;4.35;;;0.90;;
57233;SDS011;43090;52.604;13.318;2023-05-31T17:05:30;2.63;;;0.88;;
57233;SDS011;43090;52.604;13.318;2023-05-31T17:10:23;3.42;;;1.00;;
57233;SDS011;43090;52.604;13.318;2023-05-31T17:12:50;1.90;;;0.73;;
57233;SDS011;43090;52.604;13.318;2023-05-31T17:15:17;0.88;;;0.60;;
57233;SDS011;43090;52.604;13.318;2023-05-31T17:20:10;1.20;;;0.70;;
57233;SDS011;43090;52.604;13.318;2023-05-31T17:22:37;0.57;;;0.50;;
57233;SDS011;43090;52.604;13.318;2023-05-31T17:25:04;3.50;;;0.98;;
57233;SDS011;43090;52.604;13.318;2023-05-31T17:27:32;2.78;;;0.70;;